createdAt,value
2023-03-05T00:03:03.108Z,100204.05
2023-03-05T00:06:12.634Z,100202.85
2023-03-05T00:09:21.648Z,100197.41
2023-03-05T00:12:52.591Z,100194.45
2023-03-05T00:16:20.458Z,100188.73
2023-03-05T00:19:09.393Z,100186.40
2023-03-05T00:22:37.267Z,100175.60
2023-03-05T00:26:05.278Z,100174.23
2023-03-05T00:29:33.078Z,100176.02
2023-03-05T00:33:00.625Z,100168.37
2023-03-05T00:36:09.166Z,100171.57
2023-03-05T00:39:36.735Z,100177.04
2023-03-05T00:43:04.495Z,100172.88
2023-03-05T00:46:32.147Z,100170.54
2023-03-05T00:49:59.876Z,100173.27
2023-03-05T00:53:27.602Z,100173.64
2023-03-05T00:56:55.051Z,100168.94
2023-03-05T01:00:22.922Z,100172.02
2023-03-05T01:03:50.572Z,100165.85
2023-03-05T01:07:18.326Z,100166.19
2023-03-05T01:10:46.303Z,100165.05
2023-03-05T01:14:13.905Z,100155.92
2023-03-05T01:17:41.845Z,100167.39
2023-03-05T01:21:09.477Z,100167.73
2023-03-05T01:24:37.254Z,100172.15
2023-03-05T01:28:05.143Z,100167.48
2023-03-05T01:31:33.742Z,100169.70
2023-03-05T01:35:01.210Z,100174.02
2023-03-05T01:38:29.136Z,100172.16
2023-03-05T01:41:56.766Z,100174.79
2023-03-05T01:45:24.448Z,100175.48
2023-03-05T01:48:51.961Z,100169.38
2023-03-05T01:51:40.093Z,100174.10
2023-03-05T01:55:08.220Z,100164.27
2023-03-05T01:58:36.180Z,100165.91
2023-03-05T02:02:03.911Z,100165.21
2023-03-05T02:05:31.823Z,100162.45
2023-03-05T02:08:59.521Z,100165.01
2023-03-05T02:12:27.595Z,100168.91
2023-03-05T02:15:55.374Z,100171.05
2023-03-05T02:19:22.946Z,100166.94
2023-03-05T02:22:50.538Z,100167.75
2023-03-05T02:26:18.457Z,100170.91
2023-03-05T02:29:46.282Z,100168.75
2023-03-05T02:33:13.922Z,100170.69
2023-03-05T02:36:41.919Z,100171.11
2023-03-05T02:40:09.572Z,100171.46
2023-03-05T02:43:37.281Z,100173.64
2023-03-05T02:46:27.108Z,100173.98
2023-03-05T02:49:55.029Z,100169.91
2023-03-05T02:53:03.714Z,100167.33
2023-03-05T02:56:31.793Z,100169.44
2023-03-05T02:59:59.310Z,100173.81
2023-03-05T03:03:27.041Z,100176.27
2023-03-05T03:06:54.546Z,100177.02
2023-03-05T03:10:22.331Z,100177.52
2023-03-05T03:13:50.241Z,100176.66
2023-03-05T03:17:18.382Z,100175.40
2023-03-05T03:20:46.311Z,100176.88
2023-03-05T03:24:13.896Z,100179.59
2023-03-05T03:27:41.972Z,100183.95
2023-03-05T03:30:50.771Z,100187.82
2023-03-05T03:34:18.562Z,100183.58
2023-03-05T03:37:46.522Z,100183.11
2023-03-05T03:41:13.997Z,100187.35
2023-03-05T03:44:41.808Z,100180.80
2023-03-05T03:48:09.527Z,100186.23
2023-03-05T03:51:17.743Z,100184.17
2023-03-05T03:54:45.325Z,100183.90
2023-03-05T03:57:34.053Z,100182.19
2023-03-05T04:01:01.821Z,100179.56
2023-03-05T04:04:29.439Z,100188.52
2023-03-05T04:07:37.616Z,100187.14
2023-03-05T04:11:05.494Z,100186.38
2023-03-05T04:14:33.165Z,100187.35
2023-03-05T04:18:01.379Z,100191.04
2023-03-05T04:21:10.258Z,100193.45
2023-03-05T04:24:38.352Z,100195.58
2023-03-05T04:28:06.218Z,100199.33
2023-03-05T04:31:34.022Z,100205.14
2023-03-05T04:35:02.678Z,100208.55
2023-03-05T04:38:30.353Z,100208.73
2023-03-05T04:41:58.595Z,100207.39
2023-03-05T04:45:26.316Z,100203.38
2023-03-05T04:48:53.929Z,100199.13
2023-03-05T04:52:23.030Z,100202.79
2023-03-05T04:55:50.939Z,100208.45
2023-03-05T04:59:19.128Z,100208.50
2023-03-05T05:02:28.476Z,100205.36
2023-03-05T05:05:56.045Z,100206.94
2023-03-05T05:09:23.770Z,100207.35
2023-03-05T05:12:51.486Z,100212.53
2023-03-05T05:16:19.430Z,100216.16
2023-03-05T05:19:47.308Z,100221.44
2023-03-05T05:23:15.481Z,100227.20
2023-03-05T05:26:43.035Z,100229.28
2023-03-05T05:30:10.603Z,100229.59
2023-03-05T05:33:38.305Z,100233.59
2023-03-05T05:37:06.211Z,100234.58
2023-03-05T05:40:33.738Z,100237.64
2023-03-05T05:44:01.332Z,100240.55
2023-03-05T05:47:29.042Z,100244.36
2023-03-05T05:50:57.195Z,100249.36
2023-03-05T05:54:26.890Z,100246.73
2023-03-05T05:57:16.673Z,100251.93
2023-03-05T06:00:44.367Z,100254.52
2023-03-05T06:04:12.090Z,100259.16
2023-03-05T06:07:39.916Z,100258.88
2023-03-05T06:11:07.429Z,100265.84
2023-03-05T06:14:36.323Z,100268.63
2023-03-05T06:18:03.988Z,100269.88
2023-03-05T06:21:32.099Z,100271.41
2023-03-05T06:24:59.716Z,100281.36
2023-03-05T06:28:27.456Z,100289.66
2023-03-05T06:31:55.152Z,100293.46
2023-03-05T06:35:04.045Z,100295.54
2023-03-05T06:38:32.220Z,100297.61
2023-03-05T06:42:00.183Z,100302.29
2023-03-05T06:45:27.866Z,100304.92
2023-03-05T06:48:56.085Z,100305.98
2023-03-05T06:52:23.942Z,100309.84
2023-03-05T06:55:51.652Z,100307.95
2023-03-05T06:59:19.400Z,100309.90
2023-03-05T07:02:47.136Z,100308.87
2023-03-05T07:06:14.893Z,100308.35
2023-03-05T07:09:42.382Z,100309.73
2023-03-05T07:13:10.380Z,100310.85
2023-03-05T07:16:18.310Z,100313.20
2023-03-05T07:19:46.016Z,100320.02
2023-03-05T07:23:14.010Z,100317.50
2023-03-05T07:26:41.715Z,100318.14
2023-03-05T07:30:09.473Z,100321.24
2023-03-05T07:33:37.319Z,100329.23
2023-03-05T07:37:05.002Z,100325.84
2023-03-05T07:40:32.708Z,100321.11
2023-03-05T07:44:00.569Z,100315.18
2023-03-05T07:47:28.415Z,100318.80
2023-03-05T07:50:55.847Z,100320.63
2023-03-05T07:54:23.633Z,100317.60
2023-03-05T07:57:51.362Z,100320.31
2023-03-05T08:00:59.650Z,100319.34
2023-03-05T08:04:27.519Z,100315.69
2023-03-05T08:07:35.894Z,100321.46
2023-03-05T08:11:04.389Z,100328.02
2023-03-05T08:14:31.423Z,100329.73
2023-03-05T08:17:59.002Z,100330.45
2023-03-05T08:21:26.726Z,100335.42
2023-03-05T08:24:54.869Z,100334.23
2023-03-05T08:28:22.574Z,100335.00
2023-03-05T08:31:50.240Z,100334.23
2023-03-05T08:35:18.019Z,100334.01
2023-03-05T08:38:45.730Z,100334.16
2023-03-05T08:42:13.849Z,100335.21
2023-03-05T08:45:41.859Z,100332.06
2023-03-05T08:49:10.070Z,100334.29
2023-03-05T08:52:37.895Z,100338.05
2023-03-05T08:56:05.800Z,100336.95
2023-03-05T08:59:33.717Z,100337.11
2023-03-05T09:03:01.847Z,100344.08
2023-03-05T09:06:29.335Z,100337.97
2023-03-05T09:09:57.077Z,100340.33
2023-03-05T09:13:24.746Z,100337.29
2023-03-05T09:16:52.534Z,100336.61
2023-03-05T09:20:20.037Z,100336.64
2023-03-05T09:23:28.827Z,100332.64
2023-03-05T09:26:57.032Z,100327.13
2023-03-05T09:30:05.968Z,100327.71
2023-03-05T09:33:33.769Z,100321.23
2023-03-05T09:37:01.701Z,100322.27
2023-03-05T09:40:30.582Z,100318.89
2023-03-05T09:43:58.294Z,100320.80
2023-03-05T09:47:07.230Z,100320.95
2023-03-05T09:50:35.132Z,100318.80
2023-03-05T09:54:03.142Z,100313.57
2023-03-05T09:57:30.465Z,100315.41
2023-03-05T10:00:58.517Z,100314.09
2023-03-05T10:04:26.398Z,100310.65
2023-03-05T10:07:54.071Z,100313.03
2023-03-05T10:11:22.021Z,100306.41
2023-03-05T10:14:31.000Z,100307.79
2023-03-05T10:17:59.009Z,100304.77
2023-03-05T10:21:26.901Z,100297.60
2023-03-05T10:24:55.013Z,100294.98
2023-03-05T10:28:23.054Z,100290.73
2023-03-05T10:31:50.651Z,100285.80
2023-03-05T10:35:18.634Z,100278.68
2023-03-05T10:38:46.306Z,100277.52
2023-03-05T10:42:14.162Z,100269.90
2023-03-05T10:45:41.980Z,100266.02
2023-03-05T10:49:09.678Z,100257.05
2023-03-05T10:52:38.466Z,100248.01
2023-03-05T10:56:06.766Z,100245.20
2023-03-05T10:59:34.609Z,100243.49
2023-03-05T11:03:02.441Z,100237.85
2023-03-05T11:06:30.177Z,100234.52
2023-03-05T11:09:57.991Z,100224.83
2023-03-05T11:13:25.696Z,100217.55
2023-03-05T11:16:53.431Z,100216.39
2023-03-05T11:20:21.488Z,100215.38
2023-03-05T11:23:49.248Z,100206.52
2023-03-05T11:27:17.305Z,100201.09
2023-03-05T11:30:45.146Z,100195.98
2023-03-05T11:34:12.948Z,100191.49
2023-03-05T11:37:40.631Z,100187.54
2023-03-05T11:41:08.444Z,100187.06
2023-03-05T11:44:36.295Z,100188.58
2023-03-05T11:48:04.284Z,100185.28
2023-03-05T11:51:32.015Z,100183.67
2023-03-05T11:54:59.926Z,100183.54
2023-03-05T11:58:27.510Z,100174.39
2023-03-05T12:01:55.745Z,100174.89
2023-03-05T12:05:23.672Z,100170.34
2023-03-05T12:08:51.702Z,100162.48
2023-03-05T12:12:19.704Z,100157.95
2023-03-05T12:15:47.721Z,100149.44
2023-03-05T12:19:18.103Z,100152.88
2023-03-05T12:22:43.319Z,100148.65
2023-03-05T12:26:10.860Z,100144.30
2023-03-05T12:29:38.871Z,100141.92
2023-03-05T12:33:06.656Z,100139.14
2023-03-05T12:36:34.912Z,100139.58
2023-03-05T12:40:02.806Z,100138.34
2023-03-05T12:43:31.356Z,100132.28
2023-03-05T12:47:01.870Z,100129.67
2023-03-05T12:50:29.757Z,100126.15
2023-03-05T12:53:57.527Z,100120.40
2023-03-05T12:57:25.354Z,100123.14
2023-03-05T13:00:53.603Z,100121.58
2023-03-05T13:04:21.355Z,100122.36
2023-03-05T13:07:29.999Z,100118.98
2023-03-05T13:10:19.624Z,100116.48
2023-03-05T13:13:48.092Z,100113.10
2023-03-05T13:17:15.776Z,100110.31
2023-03-05T13:20:43.599Z,100106.99
2023-03-05T13:24:13.231Z,100100.81
2023-03-05T13:27:39.872Z,100096.87
2023-03-05T13:31:07.666Z,100096.02
2023-03-05T13:34:15.338Z,100090.99
2023-03-05T13:37:24.174Z,100092.70
2023-03-05T13:40:51.863Z,100090.02
2023-03-05T13:44:19.668Z,100085.52
2023-03-05T13:47:47.562Z,100085.06
2023-03-05T13:51:15.708Z,100081.06
2023-03-05T13:54:43.074Z,100081.25
2023-03-05T13:58:11.173Z,100077.54
2023-03-05T14:01:47.684Z,100073.28
2023-03-05T14:05:15.760Z,100072.85
2023-03-05T14:08:44.119Z,100071.96
2023-03-05T14:12:11.866Z,100066.33
2023-03-05T14:15:01.902Z,100063.57
2023-03-05T14:18:10.919Z,100058.44
2023-03-05T14:21:38.924Z,100062.44
2023-03-05T14:24:47.016Z,100055.23
2023-03-05T14:28:15.152Z,100053.05
2023-03-05T14:31:04.478Z,100042.91
2023-03-05T14:34:33.479Z,100034.59
2023-03-05T14:38:01.331Z,100033.73
2023-03-05T14:41:29.276Z,100034.27
2023-03-05T14:44:57.170Z,100035.35
2023-03-05T14:48:24.837Z,100037.95
2023-03-05T14:51:53.014Z,100037.16
2023-03-05T14:55:21.926Z,100043.86
2023-03-05T14:58:49.684Z,100041.63
2023-03-05T15:02:17.863Z,100041.83
2023-03-05T15:05:45.853Z,100037.84
2023-03-05T15:09:13.823Z,100035.87
2023-03-05T15:12:23.424Z,100034.93
2023-03-05T15:15:32.414Z,100033.01
2023-03-05T15:19:00.421Z,100041.98
2023-03-05T15:22:29.246Z,100038.96
2023-03-05T15:25:57.104Z,100041.61
2023-03-05T15:29:24.916Z,100044.48
2023-03-05T15:32:52.842Z,100046.66
2023-03-05T15:36:20.738Z,100040.96
2023-03-05T15:39:49.616Z,100036.80
2023-03-05T15:43:17.546Z,100042.81
2023-03-05T15:46:46.119Z,100041.89
2023-03-05T15:50:13.997Z,100041.20
2023-03-05T15:53:42.004Z,100038.67
2023-03-05T15:57:10.005Z,100037.89
2023-03-05T16:00:38.166Z,100038.80
2023-03-05T16:04:06.519Z,100041.45
2023-03-05T16:07:35.677Z,100035.11
2023-03-05T16:11:03.915Z,100038.86
2023-03-05T16:14:33.354Z,100039.99
2023-03-05T16:18:01.194Z,100042.29
2023-03-05T16:21:29.323Z,100043.16
2023-03-05T16:24:57.291Z,100042.05
2023-03-05T16:28:25.227Z,100043.48
2023-03-05T16:31:53.026Z,100040.82
2023-03-05T16:35:20.911Z,100043.20
2023-03-05T16:38:48.796Z,100044.79
2023-03-05T16:42:16.712Z,100043.77
2023-03-05T16:45:44.686Z,100047.67
2023-03-05T16:49:12.759Z,100046.31
2023-03-05T16:52:40.861Z,100048.81
2023-03-05T16:56:08.757Z,100055.76
2023-03-05T16:59:36.993Z,100059.98
2023-03-05T17:02:46.198Z,100060.83
2023-03-05T17:06:14.452Z,100063.94
2023-03-05T17:09:43.373Z,100063.67
2023-03-05T17:13:11.331Z,100065.92
2023-03-05T17:16:39.190Z,100063.42
2023-03-05T17:20:07.216Z,100068.36
2023-03-05T17:23:15.733Z,100070.21
2023-03-05T17:26:24.712Z,100066.79
2023-03-05T17:29:34.103Z,100054.55
2023-03-05T17:33:02.128Z,100053.68
2023-03-05T17:36:30.433Z,100049.71
2023-03-05T17:39:39.282Z,100057.08
2023-03-05T17:43:08.214Z,100067.98
2023-03-05T17:46:36.093Z,100073.71
2023-03-05T17:50:07.165Z,100066.95
2023-03-05T17:53:17.268Z,100069.06
2023-03-05T17:56:45.494Z,100077.58
2023-03-05T18:00:13.324Z,100076.77
2023-03-05T18:03:22.305Z,100074.27
2023-03-05T18:06:50.404Z,100068.97
2023-03-05T18:10:18.354Z,100066.74
2023-03-05T18:13:46.341Z,100072.91
2023-03-05T18:17:14.402Z,100071.56
2023-03-05T18:20:23.464Z,100074.55
2023-03-05T18:23:51.312Z,100074.45
2023-03-05T18:27:07.430Z,100077.55
2023-03-05T18:30:35.482Z,100075.99
2023-03-05T18:34:03.373Z,100077.14
2023-03-05T18:37:31.293Z,100073.88
2023-03-05T18:40:39.296Z,100075.93
2023-03-05T18:44:07.678Z,100070.75
2023-03-05T18:47:35.521Z,100068.50
2023-03-05T18:51:05.174Z,100070.09
2023-03-05T18:54:13.372Z,100069.13
2023-03-05T18:57:22.215Z,100075.66
2023-03-05T19:00:50.273Z,100079.40
2023-03-05T19:04:18.392Z,100078.97
2023-03-05T19:07:46.443Z,100081.83
2023-03-05T19:10:54.322Z,100085.23
2023-03-05T19:14:22.363Z,100089.31
2023-03-05T19:17:50.193Z,100087.30
2023-03-05T19:21:18.631Z,100090.32
2023-03-05T19:24:47.047Z,100092.98
2023-03-05T19:28:14.815Z,100094.49
2023-03-05T19:30:46.611Z,100095.20
2023-03-05T19:33:16.178Z,100092.46
2023-03-05T19:36:24.177Z,100093.00
2023-03-05T19:39:51.954Z,100090.02
2023-03-05T19:42:19.722Z,100090.17
2023-03-05T19:45:28.605Z,100095.40
2023-03-05T19:48:05.429Z,100097.91
2023-03-05T19:51:15.207Z,100100.09
2023-03-05T19:54:25.834Z,100097.06
2023-03-05T19:57:54.588Z,100097.85
2023-03-05T20:01:23.530Z,100094.17
2023-03-05T20:04:51.581Z,100092.93
2023-03-05T20:08:20.072Z,100092.36
2023-03-05T20:11:47.986Z,100089.09
2023-03-05T20:14:57.063Z,100092.64
2023-03-05T20:18:07.104Z,100093.38
2023-03-05T20:21:34.648Z,100090.19
2023-03-05T20:24:46.547Z,100095.27
2023-03-05T20:28:15.201Z,100086.73
2023-03-05T20:31:06.135Z,100086.06
2023-03-05T20:34:14.369Z,100082.20
2023-03-05T20:37:43.238Z,100089.67
2023-03-05T20:41:17.135Z,100084.98
2023-03-05T20:44:45.305Z,100087.48
2023-03-05T20:48:13.302Z,100078.13
2023-03-05T20:51:41.251Z,100077.69
2023-03-05T20:54:51.433Z,100076.76
2023-03-05T20:58:19.428Z,100073.77
2023-03-05T21:01:47.851Z,100074.35
2023-03-05T21:05:11.447Z,100073.57
2023-03-05T21:08:40.007Z,100071.83
2023-03-05T21:12:07.893Z,100068.02
2023-03-05T21:15:35.865Z,100068.73
2023-03-05T21:19:04.015Z,100070.30
2023-03-05T21:22:31.893Z,100066.92
2023-03-05T21:25:48.553Z,100068.23
2023-03-05T21:29:16.479Z,100069.40
2023-03-05T21:32:05.851Z,100064.42
2023-03-05T21:35:34.243Z,100063.21
2023-03-05T21:39:02.734Z,100062.24
2023-03-05T21:42:00.470Z,100060.19
2023-03-05T21:45:28.811Z,100059.36
2023-03-05T21:48:56.992Z,100056.67
2023-03-05T21:52:25.162Z,100059.12
2023-03-05T21:55:53.114Z,100053.64
2023-03-05T21:59:21.047Z,100057.36
2023-03-05T22:02:50.074Z,100057.96
2023-03-05T22:06:02.174Z,100059.45
2023-03-05T22:09:29.964Z,100058.73
2023-03-05T22:12:38.961Z,100056.55
2023-03-05T22:15:56.524Z,100058.46
2023-03-05T22:19:05.842Z,100061.62
2023-03-05T22:22:33.921Z,100059.30
2023-03-05T22:26:01.847Z,100060.52
2023-03-05T22:29:30.003Z,100060.06
2023-03-05T22:32:19.070Z,100059.35
2023-03-05T22:35:47.112Z,100055.86
2023-03-05T22:39:14.997Z,100053.73
2023-03-05T22:42:42.927Z,100057.36
2023-03-05T22:46:10.987Z,100054.28
2023-03-05T22:49:38.959Z,100048.23
2023-03-05T22:52:55.004Z,100050.04
2023-03-05T22:56:23.440Z,100049.89
2023-03-05T22:59:51.541Z,100047.32
2023-03-05T23:03:19.606Z,100046.48
2023-03-05T23:06:47.494Z,100039.50
2023-03-05T23:10:15.520Z,100040.34
2023-03-05T23:13:43.541Z,100038.42
2023-03-05T23:17:11.363Z,100032.06
2023-03-05T23:20:39.952Z,100040.39
2023-03-05T23:24:08.300Z,100044.24
2023-03-05T23:27:36.285Z,100044.17
2023-03-05T23:31:04.496Z,100046.95
2023-03-05T23:34:32.500Z,100045.20
2023-03-05T23:38:00.531Z,100046.35
2023-03-05T23:41:28.587Z,100048.16
2023-03-05T23:44:56.655Z,100050.55
2023-03-05T23:48:24.924Z,100051.33
2023-03-05T23:51:52.979Z,100051.77
2023-03-05T23:55:21.834Z,100053.09
2023-03-05T23:58:30.644Z,100057.11
